Detall de PIREP

Printer-friendly versionPDF version

[2009/08/17 21:09:00]
Flight IATA:CT2109
Pilot Number:041
Company ICAO:CAT
Aircraft Type:AT72/F
PAX:55
Departing Airport: LEMG
Destination Airport: LEVC
Alternate Airport:LEAL
Online: VATSIM
Route:VIBAS1H B28 BAZAS B28 YES B28 XEBAR B28 POBOS B28 ASTRO1J
Flight Level:FL180
No Slew and time accel
No pause
Crash detect
Detect pilot in Cockpit between each 30 and 45 minutes
21:09 Zero fuel Weight: 41330 Lbs, Fuel Weight: 5570 Lbs
21:09 VATSIM:LEMG 172100Z 00000KT CAVOK 26/20 Q1017 NOSIG
21:09 VATSIM:LEVC 172100Z 04004KT 360V070 CAVOK 28/20 Q1017 NOSIG
21:09 VOICE CATALONIAN
21:11 Parking Brakes off
21:19 Take-off
21:19 Take off Weight: 46817 Lbs
21:19 Wind: 195º @ 002 Knots Heading: 131º
21:19 POS N36º 40´ 32´´ W004º 30´ 01´´
21:19 Flaps:1 at 135 Knots
21:19 Gear Up: 140 Knots
21:19 Flaps:0 at 190 Knots
21:34 Wind:225º@015 Knots Heading: 054º Ground Speed: 247 Knot
s Altitude 17063 ft
21:34 TOC
21:34 Fuel Weight: 4897 Lb
21:49 Wind:245º@018 Knots Heading: 045º Ground Speed: 297 Knots Altitude 18149 ft
21:53 TOD
21:53 Fuel Weight: 4287 Lb
22:04 Wind:172º@004 Knots Heading: 053º Ground Speed: 267 Knots Altitude 8671 ft
22:17 Flaps:1 at 195 Knots
22:19 Wind:122º@004 Knots Heading: 117º Ground Speed: 156 Knots Altitude 2454 ft
22:19 Flaps:2 at 149 Knots
22:19 Gear Down: 140 Knots
22:22 TouchDown:Rate -48 ft/min Speed: 108 Knots
22:22 Flaps:0 at 96 Knots
22:22 VATSIM:LEVC 172200Z 35003KT 290V030 CAVOK 27/19 Q1017 NOSIG
22:22 Land
22:22 Wind:353º@002 Knots
22:22 Heading: 118º
22:22 Flight Duration: 01:03
22:22 Landing Weight: 45017 Lbs
22:22 POS N39º 29´ 09´´ W000º 28´ 20´´
22:27 Parking brakes on
22:27 Block to Block Duration: 01:16
22:27 Final Fuel: 3657 Lbls
22:27 Spent Fuel: 1913 Lbls
22:27 Flight Length: 275 NM

22:27 TOD Land Length: 120 NM

Exportar CSV

Powered by Drupal - Modified by Danger4k